Time;durP1;ratioP1;P1;durP2;ratioP2;P2;SDS_P1;SDS_P2;PMS_P1;PMS_P2;Temp;Humidity;BMP_temperature;BMP_pressure;BME280_temperature;BME280_humidity;BME280_pressure;Samples;Min_cycle;Max_cycle;Signal;HPM_P1;HPM_P2
2022/11/11 00:00:57;;;;;;;23.03;10.87;;;;;;;3.84;92.92;101948.25;5014175;28;20283;-65
2022/11/11 00:03:23;;;;;;;22.63;10.07;;;;;;;4.05;93.46;101974.16;5015901;28;20223;-65
2022/11/11 00:05:50;;;;;;;22.17;9.93;;;;;;;3.91;93.28;101951.34;5018584;28;20204;-65
2022/11/11 00:08:17;;;;;;;22.97;9.80;;;;;;;3.77;92.94;101974.03;5018082;28;20208;-65
2022/11/11 00:10:43;;;;;;;19.07;8.93;;;;;;;3.58;92.89;101971.00;5016453;28;20227;-65
2022/11/11 00:13:09;;;;;;;17.83;8.23;;;;;;;3.44;92.94;101974.41;5017365;28;20628;-65
2022/11/11 00:15:37;;;;;;;20.13;8.73;;;;;;;3.31;93.38;101972.69;5017575;28;20295;-65
2022/11/11 00:26:19;;;;;;;18.37;8.40;;;;;;;3.10;93.96;101960.75;5012667;28;20204;-65
2022/11/11 00:29:06;;;;;;;17.77;8.17;;;;;;;3.33;94.62;101965.84;5012737;28;20224;-66
2022/11/11 00:31:34;;;;;;;18.60;9.23;;;;;;;3.52;94.60;101961.81;5018476;28;20228;-65
2022/11/11 00:34:00;;;;;;;20.83;9.13;;;;;;;3.58;94.20;101973.63;5014403;28;20291;-65
2022/11/11 00:36:27;;;;;;;20.20;8.23;;;;;;;3.69;94.33;101971.72;5019182;28;20231;-65
2022/11/11 00:38:54;;;;;;;17.97;8.63;;;;;;;3.85;94.47;101981.50;5016450;28;20228;-66
2022/11/11 00:41:23;;;;;;;20.57;9.17;;;;;;;3.94;94.00;101989.97;5012760;28;20196;-66
2022/11/11 00:43:49;;;;;;;20.03;8.57;;;;;;;4.02;94.23;101994.00;5016023;28;20192;-66
2022/11/11 00:51:53;;;;;;;17.73;8.60;;;;;;;4.23;94.63;101976.13;5016833;28;20672;-66
2022/11/11 00:54:19;;;;;;;22.93;8.50;;;;;;;4.25;94.62;101983.28;5007535;28;20211;-65
2022/11/11 00:56:45;;;;;;;23.17;9.53;;;;;;;4.32;94.80;101982.84;5017355;28;21801;-66
2022/11/11 00:59:12;;;;;;;20.20;9.30;;;;;;;4.44;94.81;101984.47;5014375;28;20224;-65
2022/11/11 01:01:38;;;;;;;22.87;9.70;;;;;;;4.53;94.59;101988.56;5015174;28;20209;-65
2022/11/11 01:04:05;;;;;;;28.20;10.20;;;;;;;4.63;94.97;101992.69;5021627;28;20223;-66
2022/11/11 01:06:31;;;;;;;24.07;10.20;;;;;;;4.73;94.90;101993.34;5013595;28;20203;-65
2022/11/11 01:09:03;;;;;;;27.23;11.13;;;;;;;4.84;94.66;101994.03;5017471;28;20298;-66
2022/11/11 01:11:30;;;;;;;29.73;12.40;;;;;;;4.91;94.85;101997.94;5015546;28;20643;-66
2022/11/11 01:13:56;;;;;;;30.63;11.97;;;;;;;4.96;94.75;101992.16;5022291;28;20212;-65
2022/11/11 01:16:25;;;;;;;46.10;14.47;;;;;;;5.19;95.09;101990.91;5017590;28;20291;-66
2022/11/11 01:18:53;;;;;;;39.73;13.67;;;;;;;5.20;95.02;101973.44;5018486;28;20227;-66
2022/11/11 01:21:23;;;;;;;48.70;14.13;;;;;;;5.34;94.84;101973.47;5020062;28;20223;-65
2022/11/11 01:23:52;;;;;;;33.53;15.07;;;;;;;5.44;94.65;101960.88;5016547;28;20743;-65
2022/11/11 01:26:27;;;;;;;42.57;14.57;;;;;;;5.52;94.45;101968.38;5021349;28;20199;-66
2022/11/11 01:28:58;;;;;;;38.00;14.07;;;;;;;5.53;94.87;101972.81;5016483;28;20598;-66
2022/11/11 01:31:25;;;;;;;37.13;15.77;;;;;;;5.62;94.69;101959.34;5019914;28;20196;-66
2022/11/11 01:33:52;;;;;;;43.80;14.13;;;;;;;5.71;94.52;101959.88;5012556;28;20506;-66
2022/11/11 01:36:24;;;;;;;30.90;12.10;;;;;;;5.63;94.67;101955.91;5017510;28;20192;-66
2022/11/11 01:38:53;;;;;;;35.77;14.00;;;;;;;5.66;94.93;101961.34;5025326;28;20223;-66
2022/11/11 01:41:31;;;;;;;34.23;13.07;;;;;;;5.67;94.87;101963.16;5016033;28;20268;-66
2022/11/11 01:44:10;;;;;;;38.93;13.33;;;;;;;5.77;95.21;101957.59;5015828;28;20199;-66
2022/11/11 01:46:51;;;;;;;49.10;14.83;;;;;;;5.96;95.11;101967.47;5021486;28;20211;-66
2022/11/11 01:49:39;;;;;;;67.60;13.90;;;;;;;5.89;94.82;101971.47;5024731;28;20587;-66
2022/11/11 01:52:08;;;;;;;35.83;13.87;;;;;;;5.97;94.77;101987.69;5015665;28;20245;-66
2022/11/11 01:54:39;;;;;;;49.23;15.60;;;;;;;6.03;94.06;101974.00;5018066;28;20202;-66
2022/11/11 01:57:18;;;;;;;44.37;15.20;;;;;;;6.06;94.27;101977.72;5019308;28;20204;-66
2022/11/11 01:59:49;;;;;;;49.57;14.73;;;;;;;5.96;94.57;101970.09;5016033;28;20228;-66
2022/11/11 02:02:20;;;;;;;65.80;14.57;;;;;;;5.98;94.58;101979.88;5016771;28;20253;-67
2022/11/11 02:07:35;;;;;;;38.33;14.20;;;;;;;6.07;93.75;101970.72;5020966;28;20299;-66
2022/11/11 02:10:07;;;;;;;49.97;15.27;;;;;;;5.99;94.13;101972.91;5014276;28;20219;-66
2022/11/11 02:15:19;;;;;;;54.97;16.00;;;;;;;6.04;94.31;101965.31;5014484;28;20283;-66
2022/11/11 02:17:49;;;;;;;42.40;14.53;;;;;;;5.99;94.74;101959.75;5017735;28;20677;-66
2022/11/11 02:20:21;;;;;;;42.60;15.17;;;;;;;5.97;94.76;101950.88;5018632;28;20218;-66
2022/11/11 02:22:54;;;;;;;50.77;15.63;;;;;;;5.99;95.10;101957.13;5013825;28;20201;-66
2022/11/11 02:25:24;;;;;;;69.33;16.10;;;;;;;6.03;95.05;101964.41;5023470;28;20201;-66
2022/11/11 02:27:56;;;;;;;39.40;15.40;;;;;;;6.07;95.08;101966.38;5017513;28;20254;-66
2022/11/11 02:30:22;;;;;;;51.37;16.03;;;;;;;6.15;94.73;101964.16;5014936;28;20257;-66
2022/11/11 02:32:50;;;;;;;57.33;16.20;;;;;;;6.16;94.52;101964.25;5017730;28;20209;-66
2022/11/11 02:35:21;;;;;;;49.27;14.70;;;;;;;6.08;94.67;101960.28;5016652;28;20291;-66
2022/11/11 02:37:52;;;;;;;48.83;14.50;;;;;;;6.22;94.75;101967.22;5021162;28;20694;-66
2022/11/11 02:40:33;;;;;;;62.50;14.57;;;;;;;6.21;94.49;101989.09;5016580;28;20396;-66
2022/11/11 02:43:00;;;;;;;50.33;14.33;;;;;;;6.35;94.11;101997.75;5022557;28;20201;-66
2022/11/11 02:45:26;;;;;;;41.03;15.93;;;;;;;6.24;94.13;102001.50;5021425;28;20202;-66
2022/11/11 02:47:52;;;;;;;47.37;14.50;;;;;;;6.25;94.03;102006.84;5014879;28;20287;-66
2022/11/11 02:50:19;;;;;;;50.70;14.07;;;;;;;6.20;93.90;102004.78;5019527;28;20212;-66
2022/11/11 02:52:45;;;;;;;81.33;14.63;;;;;;;6.23;93.49;101995.34;5016221;28;20326;-66
2022/11/11 02:55:11;;;;;;;54.77;13.47;;;;;;;6.21;93.46;101999.63;5016979;28;20194;-66
2022/11/11 02:57:38;;;;;;;47.60;12.50;;;;;;;6.17;93.84;102004.63;5018561;28;20232;-66
2022/11/11 03:00:06;;;;;;;77.90;14.07;;;;;;;6.07;93.39;101992.69;5017337;28;20719;-67
2022/11/11 03:02:32;;;;;;;46.03;11.40;;;;;;;6.18;93.01;102009.97;5013321;28;20204;-66
2022/11/11 03:04:58;;;;;;;48.07;13.03;;;;;;;6.12;93.72;102003.47;5015879;28;20191;-66
2022/11/11 03:07:25;;;;;;;51.53;11.97;;;;;;;6.15;93.38;102007.16;5016007;28;20542;-66
2022/11/11 03:09:51;;;;;;;49.20;12.73;;;;;;;6.14;93.20;102007.97;5015524;28;20253;-66
2022/11/11 03:12:18;;;;;;;55.53;12.27;;;;;;;6.03;93.79;102001.22;5010364;28;20691;-66
2022/11/11 03:14:44;;;;;;;32.60;11.00;;;;;;;6.13;93.33;102014.06;5010974;28;20653;-66
2022/11/11 03:21:03;;;;;;;36.93;10.60;;;;;;;5.96;93.78;102020.06;5018692;28;20227;-66
2022/11/11 03:22:41;;;;;;;38.83;10.90;;;;;;;5.99;94.01;102020.22;5015697;28;20290;-66
2022/11/11 03:25:38;;;;;;;33.40;11.40;;;;;;;5.94;94.04;102024.31;5014134;28;20205;-66
2022/11/11 03:28:05;;;;;;;27.47;10.33;;;;;;;6.03;93.87;102031.88;5008947;28;20268;-66
2022/11/11 03:30:31;;;;;;;41.50;10.37;;;;;;;5.93;93.95;102027.78;5014785;28;20228;-66
2022/11/11 03:32:59;;;;;;;49.43;11.20;;;;;;;5.92;93.92;102025.97;5026762;28;20291;-66
2022/11/11 03:35:26;;;;;;;51.77;11.80;;;;;;;5.93;94.07;102027.78;5017073;28;20235;-66
2022/11/11 03:40:37;;;;;;;39.97;8.87;;;;;;;5.98;93.55;102039.47;5015944;28;20260;-66
2022/11/11 03:43:05;;;;;;;54.87;11.30;;;;;;;5.90;93.78;102035.47;5013737;28;20235;-66
2022/11/11 03:45:31;;;;;;;73.10;11.30;;;;;;;5.74;93.74;102019.59;5016620;28;20194;-66
2022/11/11 03:47:58;;;;;;;45.27;11.17;;;;;;;5.75;94.29;102019.69;5014618;28;20196;-66
2022/11/11 03:50:24;;;;;;;43.43;10.17;;;;;;;5.92;94.03;102028.59;5017750;28;20585;-66
2022/11/11 03:52:50;;;;;;;41.83;9.40;;;;;;;5.95;93.63;102042.81;5014146;28;20280;-66
2022/11/11 03:55:17;;;;;;;40.70;10.10;;;;;;;5.84;94.01;102042.97;5013247;28;20231;-66
2022/11/11 03:57:45;;;;;;;65.30;10.50;;;;;;;5.95;93.61;102049.78;5014011;28;20200;-67
2022/11/11 04:00:13;;;;;;;61.23;11.17;;;;;;;5.87;94.01;102043.16;5011631;28;20319;-66
2022/11/11 04:11:00;;;;;;;48.97;10.73;;;;;;;5.89;94.19;102028.38;5019304;28;20238;-66
2022/11/11 04:16:12;;;;;;;42.80;10.20;;;;;;;5.96;93.40;102049.88;5012725;28;20283;-65
2022/11/11 04:21:42;;;;;;;28.73;10.93;;;;;;;5.86;93.56;102057.13;5014291;28;20680;-66
2022/11/11 04:27:10;;;;;;;30.43;10.30;;;;;;;5.72;94.07;102061.56;5021324;28;20231;-66
2022/11/11 04:29:37;;;;;;;33.70;10.10;;;;;;;5.65;93.99;102069.91;5019833;28;20746;-66
2022/11/11 04:34:57;;;;;;;45.67;9.90;;;;;;;5.61;93.96;102063.56;5018516;28;20758;-66
2022/11/11 04:37:25;;;;;;;63.77;10.43;;;;;;;5.56;94.01;102050.94;5020771;28;20235;-66
2022/11/11 04:42:38;;;;;;;28.53;8.87;;;;;;;5.61;94.24;102049.53;5020887;28;20284;-66
2022/11/11 04:47:58;;;;;;;28.93;8.80;;;;;;;5.78;94.06;102051.41;5019053;28;20740;-68
2022/11/11 04:50:30;;;;;;;35.73;8.87;;;;;;;5.77;93.63;102046.97;5014012;28;20304;-66
2022/11/11 04:52:56;;;;;;;37.80;9.37;;;;;;;5.78;93.56;102045.25;5013646;28;20279;-66
2022/11/11 04:58:09;;;;;;;70.90;10.10;;;;;;;5.72;93.31;102042.25;5019531;28;20204;-66
2022/11/11 05:00:35;;;;;;;89.67;10.33;;;;;;;5.64;93.69;102049.69;5018197;28;21538;-66
2022/11/11 05:03:14;;;;;;;45.00;10.60;;;;;;;5.69;93.91;102057.84;5023278;28;20280;-66
2022/11/11 05:11:13;;;;;;;43.17;10.43;;;;;;;5.58;93.87;102055.47;5016450;28;20230;-66
2022/11/11 05:22:08;;;;;;;47.93;9.07;;;;;;;5.60;94.20;102056.50;5022582;28;20691;-66
2022/11/11 05:27:20;;;;;;;77.13;9.83;;;;;;;5.66;93.49;102063.84;5018909;28;20231;-66
2022/11/11 05:29:47;;;;;;;60.10;10.13;;;;;;;5.58;93.89;102047.59;5017933;28;20767;-66
2022/11/11 05:32:20;;;;;;;66.00;9.70;;;;;;;5.59;93.92;102049.41;5013732;28;20286;-66
2022/11/11 05:34:47;;;;;;;85.77;10.20;;;;;;;5.52;93.97;102059.44;5016903;28;20696;-66
2022/11/11 05:37:14;;;;;;;60.77;8.57;;;;;;;5.51;93.78;102057.63;5012613;28;20283;-66
2022/11/11 05:39:41;;;;;;;72.93;9.20;;;;;;;5.48;93.81;102058.34;5021061;28;20258;-66
2022/11/11 05:42:07;;;;;;;67.40;9.77;;;;;;;5.41;94.00;102074.56;5015669;28;20224;-66
2022/11/11 05:44:34;;;;;;;33.70;8.30;;;;;;;5.48;93.45;102070.59;5015270;28;20683;-66
2022/11/11 05:47:00;;;;;;;76.60;9.80;;;;;;;5.48;93.57;102078.47;5014052;28;20742;-66
2022/11/11 05:49:27;;;;;;;45.13;7.50;;;;;;;5.45;93.57;102079.19;5011922;28;20299;-66
2022/11/11 05:51:55;;;;;;;90.20;8.77;;;;;;;5.40;93.98;102082.34;5016102;28;20274;-66
2022/11/11 05:54:22;;;;;;;62.00;9.13;;;;;;;5.40;94.10;102085.91;5017292;28;20228;-66
2022/11/11 05:56:49;;;;;;;34.30;7.93;;;;;;;5.43;93.95;102077.28;5015678;28;20228;-66
2022/11/11 05:59:17;;;;;;;23.70;7.67;;;;;;;5.38;93.89;102089.25;5019521;28;20258;-66
2022/11/11 06:01:44;;;;;;;36.47;7.73;;;;;;;5.38;94.00;102086.63;5027669;28;20695;-66
2022/11/11 06:04:10;;;;;;;34.53;7.90;;;;;;;5.49;94.02;102088.16;5015565;28;20276;-66
2022/11/11 06:06:43;;;;;;;30.37;8.03;;;;;;;5.40;93.84;102085.00;5015517;28;20212;-66
2022/11/11 06:09:10;;;;;;;23.10;8.17;;;;;;;5.38;94.01;102090.16;5013173;28;20207;-66
2022/11/11 06:11:36;;;;;;;33.93;8.77;;;;;;;5.41;94.10;102086.81;5017953;28;20283;-66
2022/11/11 06:14:02;;;;;;;35.40;8.07;;;;;;;5.55;94.00;102092.06;5016631;28;20243;-67
2022/11/11 06:16:29;;;;;;;58.60;8.33;;;;;;;5.45;93.46;102100.22;5014890;28;20714;-66
2022/11/11 06:18:55;;;;;;;24.00;7.53;;;;;;;5.44;93.65;102098.41;5012606;28;20250;-66
2022/11/11 06:21:21;;;;;;;47.40;7.70;;;;;;;5.51;92.79;102103.22;5018425;28;20192;-66
2022/11/11 06:23:48;;;;;;;44.57;7.47;;;;;;;5.45;93.16;102107.19;5011729;28;20192;-65
2022/11/11 06:26:15;;;;;;;38.20;10.77;;;;;;;5.46;93.19;102109.91;5019085;28;20802;-66
2022/11/11 06:28:45;;;;;;;26.67;6.90;;;;;;;5.41;93.40;102110.44;5016777;28;20250;-73
2022/11/11 06:31:15;;;;;;;25.67;7.10;;;;;;;5.32;93.79;102116.03;5019985;28;20294;-65
2022/11/11 06:33:42;;;;;;;23.00;7.63;;;;;;;5.31;93.70;102109.88;5017408;28;20676;-65
2022/11/11 06:36:12;;;;;;;27.00;7.03;;;;;;;5.36;93.54;102110.16;5017129;28;20240;-66
2022/11/11 06:38:42;;;;;;;44.00;8.30;;;;;;;5.37;93.48;102117.22;5016465;28;20306;-65
2022/11/11 06:41:11;;;;;;;48.73;7.77;;;;;;;5.27;93.96;102117.47;5011255;28;20642;-65
2022/11/11 06:43:42;;;;;;;24.33;7.47;;;;;;;5.38;94.12;102129.56;5016302;28;20239;-65
2022/11/11 06:46:22;;;;;;;25.30;7.30;;;;;;;5.35;94.38;102130.28;5018775;28;20290;-65
2022/11/11 06:48:49;;;;;;;41.83;8.20;;;;;;;5.40;94.48;102130.56;5021069;28;20668;-65
2022/11/11 06:51:17;;;;;;;32.17;7.50;;;;;;;5.57;93.29;102142.09;5017239;28;20794;-65
2022/11/11 06:53:45;;;;;;;30.80;7.30;;;;;;;5.50;93.44;102140.81;5019475;28;20203;-65
2022/11/11 06:56:11;;;;;;;33.37;7.47;;;;;;;5.45;93.92;102138.72;5015983;28;20201;-66
2022/11/11 06:58:38;;;;;;;47.90;8.50;;;;;;;5.48;94.04;102138.91;5025419;28;20273;-66
2022/11/11 07:01:05;;;;;;;49.70;8.60;;;;;;;5.46;93.75;102138.81;5015915;28;20649;-65
2022/11/11 07:03:32;;;;;;;39.97;7.97;;;;;;;5.50;93.99;102130.31;5009771;28;20199;-65
2022/11/11 07:06:00;;;;;;;37.20;8.13;;;;;;;5.59;93.60;102138.75;5012747;28;20227;-65
2022/11/11 07:08:27;;;;;;;37.87;9.20;;;;;;;5.56;93.96;102137.66;5020993;28;20725;-65
2022/11/11 07:10:54;;;;;;;109.70;9.70;;;;;;;5.56;93.50;102130.69;5018412;28;20525;-65
2022/11/11 07:13:20;;;;;;;39.67;8.90;;;;;;;5.54;93.77;102129.69;5024450;28;20243;-65
2022/11/11 07:15:47;;;;;;;49.93;8.50;;;;;;;5.68;93.82;102140.16;5014741;28;20232;-65
2022/11/11 07:18:13;;;;;;;34.47;8.17;;;;;;;5.66;94.11;102145.31;5015246;28;20227;-65
2022/11/11 07:20:40;;;;;;;32.87;8.23;;;;;;;5.76;93.09;102149.41;5019080;28;20722;-64
2022/11/11 07:23:07;;;;;;;47.40;8.67;;;;;;;5.67;93.13;102149.75;5016776;28;20288;-65
2022/11/11 07:25:33;;;;;;;36.07;8.33;;;;;;;5.62;93.53;102153.81;5009912;28;20728;-65
2022/11/11 07:28:00;;;;;;;34.87;7.47;;;;;;;5.60;93.82;102151.09;5015463;28;20661;-65
2022/11/11 07:30:26;;;;;;;24.60;7.53;;;;;;;5.70;94.15;102152.56;5015149;28;20260;-65
2022/11/11 07:32:53;;;;;;;41.22;8.93;;;;;;;5.84;94.21;102156.03;5010507;28;21016;-65
2022/11/11 07:35:21;;;;;;;56.70;8.77;;;;;;;5.87;93.40;102164.09;5022078;28;20747;-65
2022/11/11 07:37:47;;;;;;;35.40;8.10;;;;;;;5.86;94.02;102170.16;5015701;28;20300;-65
2022/11/11 07:40:16;;;;;;;55.60;10.80;;;;;;;5.85;94.12;102173.63;5018701;28;20733;-65
2022/11/11 07:42:42;;;;;;;111.50;9.97;;;;;;;5.87;93.18;102169.34;5016934;28;20204;-65
2022/11/11 07:45:10;;;;;;;59.30;7.80;;;;;;;5.95;92.29;102170.75;5023707;28;20757;-65
2022/11/11 07:47:36;;;;;;;35.27;7.70;;;;;;;5.95;92.33;102176.00;5020676;28;20228;-64
2022/11/11 07:50:05;;;;;;;46.40;8.53;;;;;;;5.89;92.65;102180.88;5017712;28;20683;-65
2022/11/11 07:52:35;;;;;;;35.87;7.60;;;;;;;5.95;92.90;102183.91;5024036;28;20287;-64
2022/11/11 07:55:03;;;;;;;30.97;8.20;;;;;;;6.05;92.92;102183.66;5019440;28;20224;-65
2022/11/11 07:57:29;;;;;;;23.03;8.17;;;;;;;6.14;92.68;102183.31;5019057;28;20235;-65
2022/11/11 07:59:55;;;;;;;16.10;7.30;;;;;;;6.17;92.69;102184.41;5022034;28;20280;-65
2022/11/11 08:02:21;;;;;;;18.03;8.17;;;;;;;6.23;92.68;102194.38;5017424;28;20280;-64
2022/11/11 08:04:48;;;;;;;17.90;7.63;;;;;;;6.15;93.01;102191.28;5021764;28;20235;-64
2022/11/11 08:07:21;;;;;;;49.73;7.23;;;;;;;6.11;91.44;102183.13;5019617;28;20202;-65
2022/11/11 08:09:49;;;;;;;38.37;7.07;;;;;;;6.15;91.31;102199.19;5020959;28;20227;-65
2022/11/11 08:15:00;;;;;;;20.17;8.10;;;;;;;6.25;92.87;102208.53;5024405;28;20236;-65
2022/11/11 08:17:36;;;;;;;60.70;9.37;;;;;;;6.34;92.00;102208.16;5020638;28;20200;-65
2022/11/11 08:20:02;;;;;;;38.97;7.60;;;;;;;6.33;90.95;102215.16;5022160;28;20225;-65
2022/11/11 08:22:34;;;;;;;21.07;7.47;;;;;;;6.38;91.09;102211.06;5018788;28;20251;-65
2022/11/11 08:25:01;;;;;;;22.30;7.43;;;;;;;6.48;90.06;102209.91;5015061;28;20292;-65
2022/11/11 08:27:30;;;;;;;27.37;7.73;;;;;;;6.48;90.15;102212.53;5015502;28;20262;-65
2022/11/11 08:29:56;;;;;;;25.23;7.27;;;;;;;6.49;90.31;102219.63;5017676;28;20268;-64
2022/11/11 08:32:23;;;;;;;29.37;7.27;;;;;;;6.42;90.41;102218.34;5015170;28;20911;-65
2022/11/11 08:34:49;;;;;;;27.43;8.03;;;;;;;6.53;90.73;102217.25;5015779;28;20260;-65
2022/11/11 08:37:15;;;;;;;45.67;7.93;;;;;;;6.58;90.00;102217.53;5020879;28;20236;-64
2022/11/11 08:39:42;;;;;;;24.40;7.47;;;;;;;6.69;89.93;102208.50;5020308;28;20305;-64
2022/11/11 08:42:08;;;;;;;17.17;7.83;;;;;;;6.84;90.12;102205.88;5016616;28;20280;-66
2022/11/11 08:44:34;;;;;;;28.63;8.30;;;;;;;6.96;89.09;102210.94;5020182;28;20248;-65
2022/11/11 08:47:00;;;;;;;25.43;7.97;;;;;;;6.98;88.29;102214.56;5017016;28;20293;-65
2022/11/11 08:49:27;;;;;;;26.30;7.30;;;;;;;6.99;88.32;102203.19;5019232;28;20660;-66
2022/11/11 08:51:53;;;;;;;19.67;7.00;;;;;;;7.15;88.00;102205.88;5019443;28;20629;-66
2022/11/11 08:54:19;;;;;;;21.87;7.80;;;;;;;7.24;87.15;102206.41;5016944;28;20204;-67
2022/11/11 08:56:45;;;;;;;13.67;7.50;;;;;;;7.27;88.15;102197.78;5014327;28;20700;-66
2022/11/11 08:59:12;;;;;;;15.40;7.17;;;;;;;7.44;88.03;102189.97;5016857;28;20515;-66
2022/11/11 09:01:38;;;;;;;20.90;8.10;;;;;;;7.59;86.12;102186.31;5011619;28;20253;-66
2022/11/11 09:04:05;;;;;;;13.93;7.10;;;;;;;7.70;86.10;102190.47;5011776;28;20281;-66
2022/11/11 09:06:51;;;;;;;18.77;7.17;;;;;;;7.61;85.94;102184.72;5018726;28;20209;-66
2022/11/11 09:09:17;;;;;;;12.93;7.50;;;;;;;7.60;86.01;102196.97;5011295;28;20215;-67
2022/11/11 09:11:44;;;;;;;13.80;7.27;;;;;;;7.69;84.82;102192.22;5011328;28;20291;-66
2022/11/11 09:14:10;;;;;;;12.33;7.10;;;;;;;7.62;84.87;102203.25;5015515;28;20232;-66
2022/11/11 09:16:36;;;;;;;14.70;6.77;;;;;;;7.61;85.30;102195.25;5013358;28;20221;-67
2022/11/11 09:19:02;;;;;;;12.40;6.37;;;;;;;7.58;85.57;102193.34;5011946;28;20246;-66
2022/11/11 09:21:29;;;;;;;22.83;8.00;;;;;;;7.66;85.87;102185.88;5011531;28;20280;-65
2022/11/11 09:23:55;;;;;;;14.33;7.00;;;;;;;7.59;84.51;102187.22;5017550;28;20231;-65
2022/11/11 09:26:21;;;;;;;16.97;7.30;;;;;;;7.69;84.52;102200.13;5020717;28;20279;-65
2022/11/11 09:28:48;;;;;;;12.23;7.10;;;;;;;7.85;84.18;102204.47;5026415;28;20343;-66
2022/11/11 09:31:14;;;;;;;16.63;7.40;;;;;;;7.75;83.94;102207.44;5024433;28;20260;-65
2022/11/11 09:34:01;;;;;;;14.83;7.70;;;;;;;7.68;84.24;102214.13;5013706;28;20208;-65
2022/11/11 09:36:28;;;;;;;15.70;8.33;;;;;;;7.68;84.14;102216.75;5011901;28;20290;-66
2022/11/11 09:38:54;;;;;;;14.97;7.60;;;;;;;7.79;83.97;102218.25;5014022;28;20652;-65
2022/11/11 09:41:30;;;;;;;13.63;7.77;;;;;;;7.76;84.13;102212.81;5017822;28;20254;-66
2022/11/11 09:43:59;;;;;;;12.87;6.63;;;;;;;7.96;84.31;102215.59;5019484;28;20235;-66
2022/11/11 09:46:50;;;;;;;13.10;6.60;;;;;;;8.11;84.02;102211.13;5016262;28;20197;-66
2022/11/11 09:49:50;;;;;;;17.60;7.83;;;;;;;8.09;83.07;102221.63;5014260;28;20280;-65
2022/11/11 09:52:21;;;;;;;14.47;7.30;;;;;;;8.14;84.05;102213.94;5021622;28;20286;-65
2022/11/11 09:55:19;;;;;;;13.40;7.50;;;;;;;8.37;84.51;102216.06;5018602;28;20750;-65
2022/11/11 09:57:52;;;;;;;14.23;7.87;;;;;;;8.38;82.46;102216.97;5008112;28;20195;-69
2022/11/11 10:00:27;;;;;;;16.13;8.03;;;;;;;8.37;82.09;102201.94;5017959;28;20302;-65
2022/11/11 10:03:04;;;;;;;14.17;8.00;;;;;;;8.33;82.58;102205.22;5021007;28;20231;-66
2022/11/11 10:06:02;;;;;;;16.43;7.77;;;;;;;8.60;81.77;102198.75;5015449;28;20617;-65
2022/11/11 10:08:35;;;;;;;12.93;7.30;;;;;;;8.65;80.54;102199.88;5016074;28;20275;-65
2022/11/11 10:11:04;;;;;;;14.17;7.20;;;;;;;8.60;81.32;102203.13;5018601;28;20281;-65
2022/11/11 10:13:33;;;;;;;14.17;7.60;;;;;;;8.38;80.82;102195.84;5012763;28;20710;-65
2022/11/11 10:16:06;;;;;;;12.17;7.87;;;;;;;8.46;81.48;102198.06;5010150;28;20320;-65
2022/11/11 10:18:51;;;;;;;15.10;7.60;;;;;;;8.52;81.05;102196.56;5020484;28;20241;-65
2022/11/11 10:21:50;;;;;;;11.87;7.13;;;;;;;8.46;81.69;102184.88;5018562;28;20280;-66
2022/11/11 10:24:41;;;;;;;14.10;7.63;;;;;;;8.66;81.49;102199.06;5010262;28;20671;-66
2022/11/11 10:27:18;;;;;;;13.93;7.80;;;;;;;8.72;80.73;102194.06;5010139;28;20663;-66
2022/11/11 10:29:45;;;;;;;15.67;8.50;;;;;;;8.89;79.74;102194.03;5021696;28;20255;-66
2022/11/11 10:32:20;;;;;;;13.63;7.63;;;;;;;9.03;79.29;102191.22;5018308;28;20201;-66
2022/11/11 10:34:47;;;;;;;14.87;7.37;;;;;;;9.20;79.69;102192.00;5027537;28;20735;-66
2022/11/11 10:37:18;;;;;;;12.30;6.90;;;;;;;9.39;78.06;102199.09;5024748;28;20282;-65
2022/11/11 10:40:14;;;;;;;12.97;7.37;;;;;;;9.39;77.67;102192.06;5013227;28;20746;-65
2022/11/11 10:42:40;;;;;;;16.77;7.50;;;;;;;9.41;76.34;102198.31;5016404;28;20224;-65
2022/11/11 10:45:38;;;;;;;13.57;7.13;;;;;;;9.60;76.20;102193.88;5022634;28;20199;-65
2022/11/11 10:48:09;;;;;;;11.67;7.03;;;;;;;9.70;76.31;102194.41;5025777;28;20269;-65
2022/11/11 10:50:39;;;;;;;13.53;7.40;;;;;;;9.54;75.56;102193.59;5020419;28;20316;-65
2022/11/11 10:53:15;;;;;;;13.90;7.07;;;;;;;9.64;76.76;102188.84;5022824;28;20626;-65
2022/11/11 10:56:08;;;;;;;12.77;7.43;;;;;;;9.56;77.27;102187.53;5027118;28;20208;-66
2022/11/11 10:58:53;;;;;;;12.80;7.40;;;;;;;9.44;76.62;102194.91;5016061;28;20229;-65
2022/11/11 11:01:28;;;;;;;12.30;6.87;;;;;;;9.30;77.76;102186.34;5017435;28;20307;-66
2022/11/11 11:04:02;;;;;;;10.90;7.17;;;;;;;9.29;77.66;102178.34;5019032;28;21539;-65
2022/11/11 11:06:33;;;;;;;13.30;8.70;;;;;;;9.19;77.48;102179.63;5019619;28;20297;-65
2022/11/11 11:09:21;;;;;;;13.17;7.53;;;;;;;9.15;78.55;102175.03;5016470;28;20588;-65
2022/11/11 11:12:17;;;;;;;13.60;7.93;;;;;;;9.32;77.70;102174.09;5015490;28;20291;-65
2022/11/11 11:14:50;;;;;;;12.57;7.70;;;;;;;9.25;77.38;102169.38;5019443;28;20297;-65
2022/11/11 11:17:23;;;;;;;12.60;7.50;;;;;;;9.38;77.79;102170.84;5022336;28;20725;-65
2022/11/11 11:20:13;;;;;;;13.57;7.93;;;;;;;9.43;77.32;102174.59;5021572;28;20279;-66
2022/11/11 11:22:48;;;;;;;13.57;8.47;;;;;;;9.55;77.53;102163.66;5018682;28;20660;-65
2022/11/11 11:25:15;;;;;;;13.70;7.90;;;;;;;9.73;75.94;102169.81;5024615;28;20732;-65
2022/11/11 11:27:41;;;;;;;15.77;7.73;;;;;;;9.65;75.79;102164.19;5026731;28;20290;-65
2022/11/11 11:30:14;;;;;;;13.10;7.73;;;;;;;9.79;77.66;102164.78;5020254;28;20259;-65
2022/11/11 11:32:58;;;;;;;13.80;7.60;;;;;;;10.05;75.81;102164.22;5020020;28;20197;-65
2022/11/11 11:35:40;;;;;;;14.97;8.77;;;;;;;10.07;74.83;102164.28;5019351;28;20258;-66
2022/11/11 11:38:09;;;;;;;16.17;9.53;;;;;;;10.23;74.74;102157.94;5017527;28;20305;-65
2022/11/11 11:40:44;;;;;;;17.10;9.90;;;;;;;10.36;74.67;102158.53;5020709;28;20261;-65
2022/11/11 11:43:35;;;;;;;18.53;10.50;;;;;;;10.37;74.66;102154.13;5019878;28;20220;-66
2022/11/11 11:46:13;;;;;;;17.10;9.73;;;;;;;10.40;75.22;102156.91;5018193;28;20744;-65
2022/11/11 11:48:55;;;;;;;18.03;10.10;;;;;;;10.29;74.33;102152.91;5017882;28;20315;-66
2022/11/11 11:51:37;;;;;;;21.07;10.27;;;;;;;10.34;75.19;102154.91;5021382;28;20663;-66
2022/11/11 11:54:26;;;;;;;14.13;8.17;;;;;;;10.61;74.40;102152.53;5021355;28;20290;-66
2022/11/11 11:56:57;;;;;;;15.13;8.67;;;;;;;10.72;73.29;102152.94;5015745;28;20292;-66
2022/11/11 11:59:41;;;;;;;16.53;9.20;;;;;;;10.41;73.85;102153.44;5012254;28;20246;-66
2022/11/11 12:02:10;;;;;;;17.23;9.90;;;;;;;10.45;74.79;102163.31;5015435;28;20242;-66
2022/11/11 12:04:44;;;;;;;19.67;9.67;;;;;;;10.46;74.20;102165.13;5019767;28;20311;-67
2022/11/11 12:07:42;;;;;;;20.33;12.33;;;;;;;10.40;74.19;102161.28;5019206;28;20290;-67
2022/11/11 12:10:30;;;;;;;30.43;14.40;;;;;;;10.60;73.09;102163.06;5013683;28;20310;-66
2022/11/11 12:13:42;;;;;;;26.80;14.87;;;;;;;10.61;73.53;102173.72;5030405;28;20223;-66
2022/11/11 12:16:24;;;;;;;28.17;15.20;;;;;;;10.62;73.78;102156.97;5015908;28;20233;-66
2022/11/11 12:19:11;;;;;;;41.57;16.93;;;;;;;10.76;73.73;102164.56;5033449;28;21054;-66
2022/11/11 12:22:02;;;;;;;37.90;19.17;;;;;;;10.64;73.11;102162.34;5015904;28;20315;-66
2022/11/11 12:24:41;;;;;;;44.23;20.40;;;;;;;10.54;73.39;102161.06;5012921;28;20265;-66
2022/11/11 12:27:14;;;;;;;37.20;19.33;;;;;;;10.40;74.76;102159.56;5025797;28;20196;-66
2022/11/11 12:29:59;;;;;;;38.60;19.30;;;;;;;10.27;75.61;102154.59;5016223;28;20353;-66
2022/11/11 12:32:28;;;;;;;37.87;19.47;;;;;;;10.29;76.18;102153.81;5027618;28;20206;-66
2022/11/11 12:35:22;;;;;;;35.40;18.07;;;;;;;10.19;75.89;102134.78;5018813;28;20710;-66
2022/11/11 12:38:34;;;;;;;36.73;18.93;;;;;;;10.33;75.34;102153.09;5014970;28;20286;-65
2022/11/11 12:41:16;;;;;;;34.63;18.13;;;;;;;10.44;74.88;102150.03;4987404;28;20235;-65
2022/11/11 12:43:51;;;;;;;34.27;17.53;;;;;;;10.22;75.53;102156.13;5015279;28;20237;-65
2022/11/11 12:46:45;;;;;;;34.57;18.63;;;;;;;10.12;76.26;102154.81;5018681;28;20234;-65
2022/11/11 12:49:22;;;;;;;34.93;17.50;;;;;;;10.07;76.33;102156.34;5015924;28;20664;-66
2022/11/11 12:52:26;;;;;;;28.57;15.00;;;;;;;10.04;76.17;102165.06;5018703;28;20586;-66
2022/11/11 12:55:04;;;;;;;26.03;14.80;;;;;;;10.01;76.61;102153.44;5016024;28;20229;-65